Here is the Quick Look data you requested

The Data originates at the National Weather Service, and is made available here by the UAlbany Department of Atmospheric and Environmental Sciences

Surface Observations

KWWD 251056Z AUTO 00000KT 1/4SM FG OVC001 18/18 A2987 RMK AO2 SLP116 T01780178=
KWWD 251133Z AUTO 00000KT 3/4SM BR OVC001 19/19 A2987 RMK AO2 P0001=
KWWD 251135Z AUTO 00000KT 1 1/4SM BR OVC001 19/19 A2987 RMK AO2 P0001=
KWAL 251054Z AUTO 00000KT 1/4SM FG VV002 19/19 A2987 RMK AO2 SLP112 T01890189=
KDCA 251052Z 20004KT 10SM OVC250 21/19 A2986 RMK AO2 SLP110 T02110194=
KMIV 251054Z AUTO 00000KT 10SM CLR 17/16 A2986 RMK AO2 SLP109 T01670161=
KMFV 251055Z AUTO 00000KT M1/4SM FG OVC001 A2986 RMK AO2 P0001=
KORF 251051Z 07003KT 8SM OVC006 22/20 A2986 RMK AO2 SLP111 T02170200=
KAKQ 251054Z AUTO 00000KT M1/4SM FG VV002 19/19 A2988 RMK AO2 SLP117 T01890189=
KDOV 251055Z 00000KT 6SM BR CLR 20/19 A2984 RMK AO2A SLP108 T02020194=
KGED 251054Z AUTO 00000KT 5SM BR BKN002 17/17 A2986 RMK AO2 SLP111 T01720172=
KILG 251051Z 00000KT 10SM CLR 19/16 A2986 RMK AO2 SLP113 T01890161=
KADW 251055Z AUTO 19003KT 10SM CLR 18/17 A2984 RMK AO2 SLP110 T01760166 $=
KBWI 251054Z 00000KT 10SM BKN250 19/18 A2985 RMK AO2 SLP108 T01890178=
KDMH 251053Z AUTO 22/18 A2986 RMK AO1 SLP111 T02220178=
KFME 251049Z AUTO 00000KT 7SM CLR 15/15 A2989 RMK AO1=
KHGR 251053Z 00000KT 8SM CLR 19/17 A2988 RMK AO2 SLP122 T01890167=
KMTN 251054Z 00000KT 10SM CLR 18/18 A2987=
KNHK 251052Z AUTO 26003KT 4SM BR CLR 21/19 A2987 RMK AO2 SLP113 T02060189 $=
KOXB 251053Z AUTO 00000KT 1/4SM FG VV002 19/18 A2986 RMK AO2 SLP110 T01940183=
KSBY 251054Z 00000KT 1/4SM FG VV001 16/16 A2986 RMK AO2 SLP114 T01610161=